sensor_id;sensor_type;location;lat;lon;timestamp;P1;durP1;ratioP1;P2;durP2;ratioP2
55362;SDS011;41244;49.242;9.060;2023-02-15T00:01:52;269.15;;;31.77;;
55362;SDS011;41244;49.242;9.060;2023-02-15T00:04:19;252.95;;;36.10;;
55362;SDS011;41244;49.242;9.060;2023-02-15T00:06:50;274.33;;;32.65;;
55362;SDS011;41244;49.242;9.060;2023-02-15T00:09:16;321.17;;;32.80;;
55362;SDS011;41244;49.242;9.060;2023-02-15T00:11:41;366.65;;;35.25;;
55362;SDS011;41244;49.242;9.060;2023-02-15T00:14:11;259.02;;;31.40;;
55362;SDS011;41244;49.242;9.060;2023-02-15T00:16:46;300.20;;;30.58;;
55362;SDS011;41244;49.242;9.060;2023-02-15T00:19:14;263.10;;;32.40;;
55362;SDS011;41244;49.242;9.060;2023-02-15T00:21:42;228.52;;;29.33;;
55362;SDS011;41244;49.242;9.060;2023-02-15T00:24:14;243.73;;;32.05;;
55362;SDS011;41244;49.242;9.060;2023-02-15T00:26:45;229.98;;;31.40;;
55362;SDS011;41244;49.242;9.060;2023-02-15T00:29:12;221.13;;;26.80;;
55362;SDS011;41244;49.242;9.060;2023-02-15T00:31:39;146.32;;;28.83;;
55362;SDS011;41244;49.242;9.060;2023-02-15T00:34:06;327.25;;;35.47;;
55362;SDS011;41244;49.242;9.060;2023-02-15T00:36:41;232.48;;;30.10;;
55362;SDS011;41244;49.242;9.060;2023-02-15T00:39:08;420.88;;;39.30;;
55362;SDS011;41244;49.242;9.060;2023-02-15T00:41:34;170.90;;;28.95;;
55362;SDS011;41244;49.242;9.060;2023-02-15T00:44:00;241.57;;;30.35;;
55362;SDS011;41244;49.242;9.060;2023-02-15T00:46:29;254.57;;;29.92;;
55362;SDS011;41244;49.242;9.060;2023-02-15T00:49:01;297.92;;;31.63;;
55362;SDS011;41244;49.242;9.060;2023-02-15T00:51:28;293.83;;;31.83;;
55362;SDS011;41244;49.242;9.060;2023-02-15T00:53:54;256.85;;;31.35;;
55362;SDS011;41244;49.242;9.060;2023-02-15T00:56:20;371.33;;;40.67;;
55362;SDS011;41244;49.242;9.060;2023-02-15T00:58:46;237.48;;;30.58;;
55362;SDS011;41244;49.242;9.060;2023-02-15T01:01:16;204.27;;;28.60;;
55362;SDS011;41244;49.242;9.060;2023-02-15T01:03:44;218.18;;;28.92;;
55362;SDS011;41244;49.242;9.060;2023-02-15T01:06:11;176.63;;;29.90;;
55362;SDS011;41244;49.242;9.060;2023-02-15T01:08:38;208.90;;;29.30;;
55362;SDS011;41244;49.242;9.060;2023-02-15T01:11:09;285.02;;;32.35;;
55362;SDS011;41244;49.242;9.060;2023-02-15T01:13:37;231.60;;;30.98;;
55362;SDS011;41244;49.242;9.060;2023-02-15T01:16:04;299.85;;;30.52;;
55362;SDS011;41244;49.242;9.060;2023-02-15T01:18:31;200.65;;;28.00;;
55362;SDS011;41244;49.242;9.060;2023-02-15T01:20:58;382.85;;;33.22;;
55362;SDS011;41244;49.242;9.060;2023-02-15T01:23:24;278.50;;;32.95;;
55362;SDS011;41244;49.242;9.060;2023-02-15T01:25:49;291.45;;;34.13;;
55362;SDS011;41244;49.242;9.060;2023-02-15T01:28:15;251.00;;;32.33;;
55362;SDS011;41244;49.242;9.060;2023-02-15T01:30:41;176.88;;;27.23;;
55362;SDS011;41244;49.242;9.060;2023-02-15T01:33:07;277.80;;;34.47;;
55362;SDS011;41244;49.242;9.060;2023-02-15T01:35:32;231.75;;;29.77;;
55362;SDS011;41244;49.242;9.060;2023-02-15T01:37:58;198.23;;;30.50;;
55362;SDS011;41244;49.242;9.060;2023-02-15T01:40:24;219.40;;;28.35;;
55362;SDS011;41244;49.242;9.060;2023-02-15T01:42:51;228.13;;;34.55;;
55362;SDS011;41244;49.242;9.060;2023-02-15T01:45:23;158.63;;;26.52;;
55362;SDS011;41244;49.242;9.060;2023-02-15T01:47:58;104.55;;;26.80;;
55362;SDS011;41244;49.242;9.060;2023-02-15T01:50:42;157.10;;;26.83;;
55362;SDS011;41244;49.242;9.060;2023-02-15T01:53:15;157.05;;;27.83;;
55362;SDS011;41244;49.242;9.060;2023-02-15T01:55:50;172.50;;;29.75;;
55362;SDS011;41244;49.242;9.060;2023-02-15T01:58:24;145.88;;;29.02;;
55362;SDS011;41244;49.242;9.060;2023-02-15T02:00:52;129.48;;;28.08;;
55362;SDS011;41244;49.242;9.060;2023-02-15T02:03:21;124.82;;;27.80;;
55362;SDS011;41244;49.242;9.060;2023-02-15T02:06:13;158.27;;;28.88;;
55362;SDS011;41244;49.242;9.060;2023-02-15T02:08:38;161.43;;;27.90;;
55362;SDS011;41244;49.242;9.060;2023-02-15T02:11:12;162.80;;;29.92;;
55362;SDS011;41244;49.242;9.060;2023-02-15T02:13:42;124.80;;;27.35;;
55362;SDS011;41244;49.242;9.060;2023-02-15T02:16:28;136.73;;;27.52;;
55362;SDS011;41244;49.242;9.060;2023-02-15T02:22:28;130.13;;;27.17;;
55362;SDS011;41244;49.242;9.060;2023-02-15T02:42:38;122.68;;;28.33;;
55362;SDS011;41244;49.242;9.060;2023-02-15T02:45:13;138.70;;;27.55;;
55362;SDS011;41244;49.242;9.060;2023-02-15T02:48:06;128.73;;;27.17;;
55362;SDS011;41244;49.242;9.060;2023-02-15T02:50:38;120.88;;;28.30;;
55362;SDS011;41244;49.242;9.060;2023-02-15T02:53:05;119.15;;;26.23;;
55362;SDS011;41244;49.242;9.060;2023-02-15T03:03:40;140.30;;;28.23;;
55362;SDS011;41244;49.242;9.060;2023-02-15T03:06:14;161.38;;;27.58;;
55362;SDS011;41244;49.242;9.060;2023-02-15T03:09:18;137.63;;;26.85;;
55362;SDS011;41244;49.242;9.060;2023-02-15T03:11:59;136.90;;;25.27;;
55362;SDS011;41244;49.242;9.060;2023-02-15T03:14:27;183.85;;;27.98;;
55362;SDS011;41244;49.242;9.060;2023-02-15T03:16:53;162.05;;;26.42;;
55362;SDS011;41244;49.242;9.060;2023-02-15T03:19:27;120.55;;;24.17;;
55362;SDS011;41244;49.242;9.060;2023-02-15T03:22:00;149.57;;;25.75;;
55362;SDS011;41244;49.242;9.060;2023-02-15T03:24:53;110.15;;;25.10;;
55362;SDS011;41244;49.242;9.060;2023-02-15T03:27:24;126.90;;;24.35;;
55362;SDS011;41244;49.242;9.060;2023-02-15T03:29:56;151.70;;;25.95;;
55362;SDS011;41244;49.242;9.060;2023-02-15T03:32:23;182.32;;;28.10;;
55362;SDS011;41244;49.242;9.060;2023-02-15T03:34:52;190.63;;;27.45;;
55362;SDS011;41244;49.242;9.060;2023-02-15T03:40:02;144.32;;;24.77;;
55362;SDS011;41244;49.242;9.060;2023-02-15T03:45:40;179.48;;;26.45;;
55362;SDS011;41244;49.242;9.060;2023-02-15T03:48:20;160.98;;;24.38;;
55362;SDS011;41244;49.242;9.060;2023-02-15T03:50:50;199.38;;;27.45;;
55362;SDS011;41244;49.242;9.060;2023-02-15T03:53:38;115.38;;;24.00;;
55362;SDS011;41244;49.242;9.060;2023-02-15T03:56:05;213.90;;;26.40;;
55362;SDS011;41244;49.242;9.060;2023-02-15T03:58:30;135.93;;;25.92;;
55362;SDS011;41244;49.242;9.060;2023-02-15T04:01:25;181.07;;;27.15;;
55362;SDS011;41244;49.242;9.060;2023-02-15T04:04:25;184.57;;;25.00;;
55362;SDS011;41244;49.242;9.060;2023-02-15T04:07:07;162.27;;;25.20;;
55362;SDS011;41244;49.242;9.060;2023-02-15T04:09:34;171.52;;;26.75;;
55362;SDS011;41244;49.242;9.060;2023-02-15T04:12:18;140.73;;;23.70;;
55362;SDS011;41244;49.242;9.060;2023-02-15T04:14:44;148.40;;;24.02;;
55362;SDS011;41244;49.242;9.060;2023-02-15T04:19:54;142.45;;;24.45;;
55362;SDS011;41244;49.242;9.060;2023-02-15T04:22:39;136.77;;;24.08;;
55362;SDS011;41244;49.242;9.060;2023-02-15T04:25:23;235.13;;;28.63;;
55362;SDS011;41244;49.242;9.060;2023-02-15T04:27:50;184.15;;;24.73;;
55362;SDS011;41244;49.242;9.060;2023-02-15T04:30:18;171.55;;;23.35;;
55362;SDS011;41244;49.242;9.060;2023-02-15T04:32:47;270.15;;;24.75;;
55362;SDS011;41244;49.242;9.060;2023-02-15T04:35:13;316.77;;;29.33;;
55362;SDS011;41244;49.242;9.060;2023-02-15T04:37:40;285.70;;;27.75;;
55362;SDS011;41244;49.242;9.060;2023-02-15T04:40:07;317.92;;;28.17;;
55362;SDS011;41244;49.242;9.060;2023-02-15T04:42:36;152.68;;;26.10;;
55362;SDS011;41244;49.242;9.060;2023-02-15T04:45:02;164.93;;;26.23;;
55362;SDS011;41244;49.242;9.060;2023-02-15T04:47:29;203.93;;;28.65;;
55362;SDS011;41244;49.242;9.060;2023-02-15T04:49:54;312.10;;;30.20;;
55362;SDS011;41244;49.242;9.060;2023-02-15T04:52:20;299.75;;;30.35;;
55362;SDS011;41244;49.242;9.060;2023-02-15T04:54:46;246.95;;;27.25;;
55362;SDS011;41244;49.242;9.060;2023-02-15T04:57:12;372.27;;;29.85;;
55362;SDS011;41244;49.242;9.060;2023-02-15T04:59:38;329.20;;;28.70;;
55362;SDS011;41244;49.242;9.060;2023-02-15T05:02:04;472.35;;;36.60;;
55362;SDS011;41244;49.242;9.060;2023-02-15T05:04:30;433.13;;;32.88;;
55362;SDS011;41244;49.242;9.060;2023-02-15T05:06:55;274.23;;;28.65;;
55362;SDS011;41244;49.242;9.060;2023-02-15T05:09:21;301.35;;;29.92;;
55362;SDS011;41244;49.242;9.060;2023-02-15T05:11:47;212.05;;;28.02;;
55362;SDS011;41244;49.242;9.060;2023-02-15T05:14:13;310.08;;;34.15;;
55362;SDS011;41244;49.242;9.060;2023-02-15T05:16:39;104.32;;;27.02;;
55362;SDS011;41244;49.242;9.060;2023-02-15T05:19:05;240.55;;;28.40;;
55362;SDS011;41244;49.242;9.060;2023-02-15T05:21:31;238.73;;;29.90;;
55362;SDS011;41244;49.242;9.060;2023-02-15T05:23:57;175.80;;;26.02;;
55362;SDS011;41244;49.242;9.060;2023-02-15T05:26:24;134.18;;;28.00;;
55362;SDS011;41244;49.242;9.060;2023-02-15T05:29:08;189.20;;;28.27;;
55362;SDS011;41244;49.242;9.060;2023-02-15T05:31:35;213.43;;;27.73;;
55362;SDS011;41244;49.242;9.060;2023-02-15T05:34:01;147.85;;;26.23;;
55362;SDS011;41244;49.242;9.060;2023-02-15T05:36:27;243.07;;;28.25;;
55362;SDS011;41244;49.242;9.060;2023-02-15T05:38:53;257.77;;;26.52;;
55362;SDS011;41244;49.242;9.060;2023-02-15T05:41:20;275.35;;;26.38;;
55362;SDS011;41244;49.242;9.060;2023-02-15T05:43:46;213.18;;;25.48;;
55362;SDS011;41244;49.242;9.060;2023-02-15T05:46:12;232.27;;;26.98;;
55362;SDS011;41244;49.242;9.060;2023-02-15T05:48:38;208.23;;;26.98;;
55362;SDS011;41244;49.242;9.060;2023-02-15T05:51:08;190.75;;;26.52;;
55362;SDS011;41244;49.242;9.060;2023-02-15T05:53:38;237.57;;;28.48;;
55362;SDS011;41244;49.242;9.060;2023-02-15T05:56:05;244.75;;;25.85;;
55362;SDS011;41244;49.242;9.060;2023-02-15T05:58:33;241.82;;;25.50;;
55362;SDS011;41244;49.242;9.060;2023-02-15T06:01:09;209.15;;;25.60;;
55362;SDS011;41244;49.242;9.060;2023-02-15T06:03:40;180.68;;;26.15;;
55362;SDS011;41244;49.242;9.060;2023-02-15T06:06:06;227.98;;;26.83;;
55362;SDS011;41244;49.242;9.060;2023-02-15T06:08:33;199.80;;;27.17;;
55362;SDS011;41244;49.242;9.060;2023-02-15T06:11:00;221.05;;;25.83;;
55362;SDS011;41244;49.242;9.060;2023-02-15T06:13:25;178.98;;;24.02;;
55362;SDS011;41244;49.242;9.060;2023-02-15T06:15:51;346.15;;;29.00;;
55362;SDS011;41244;49.242;9.060;2023-02-15T06:18:17;230.55;;;29.98;;
55362;SDS011;41244;49.242;9.060;2023-02-15T06:20:46;355.17;;;33.22;;
55362;SDS011;41244;49.242;9.060;2023-02-15T06:23:12;283.20;;;27.45;;
55362;SDS011;41244;49.242;9.060;2023-02-15T06:25:38;191.32;;;27.80;;
55362;SDS011;41244;49.242;9.060;2023-02-15T06:28:04;302.77;;;28.40;;
55362;SDS011;41244;49.242;9.060;2023-02-15T06:30:30;140.98;;;27.77;;
55362;SDS011;41244;49.242;9.060;2023-02-15T06:32:56;150.35;;;28.83;;
55362;SDS011;41244;49.242;9.060;2023-02-15T06:35:22;238.32;;;29.65;;
55362;SDS011;41244;49.242;9.060;2023-02-15T06:37:47;141.77;;;26.58;;
55362;SDS011;41244;49.242;9.060;2023-02-15T06:40:14;150.30;;;26.70;;
55362;SDS011;41244;49.242;9.060;2023-02-15T06:42:40;166.00;;;27.20;;
55362;SDS011;41244;49.242;9.060;2023-02-15T06:45:07;169.57;;;26.63;;
55362;SDS011;41244;49.242;9.060;2023-02-15T06:47:34;189.02;;;26.00;;
55362;SDS011;41244;49.242;9.060;2023-02-15T06:50:00;123.35;;;26.98;;
55362;SDS011;41244;49.242;9.060;2023-02-15T06:52:25;267.58;;;29.92;;
55362;SDS011;41244;49.242;9.060;2023-02-15T06:54:51;246.40;;;27.95;;
55362;SDS011;41244;49.242;9.060;2023-02-15T06:57:17;181.15;;;26.67;;
55362;SDS011;41244;49.242;9.060;2023-02-15T06:59:43;95.85;;;25.90;;
55362;SDS011;41244;49.242;9.060;2023-02-15T07:02:09;252.93;;;28.67;;
55362;SDS011;41244;49.242;9.060;2023-02-15T07:04:37;198.88;;;27.90;;
55362;SDS011;41244;49.242;9.060;2023-02-15T07:07:03;137.35;;;26.35;;
55362;SDS011;41244;49.242;9.060;2023-02-15T07:09:29;165.68;;;28.13;;
55362;SDS011;41244;49.242;9.060;2023-02-15T07:11:55;146.18;;;25.73;;
55362;SDS011;41244;49.242;9.060;2023-02-15T07:14:39;204.38;;;26.73;;
55362;SDS011;41244;49.242;9.060;2023-02-15T07:17:05;129.77;;;24.05;;
55362;SDS011;41244;49.242;9.060;2023-02-15T07:19:31;220.52;;;27.27;;
55362;SDS011;41244;49.242;9.060;2023-02-15T07:21:57;166.73;;;24.80;;
55362;SDS011;41244;49.242;9.060;2023-02-15T07:24:23;206.70;;;26.58;;
55362;SDS011;41244;49.242;9.060;2023-02-15T07:26:48;211.10;;;28.67;;
55362;SDS011;41244;49.242;9.060;2023-02-15T07:29:14;207.77;;;31.42;;
55362;SDS011;41244;49.242;9.060;2023-02-15T07:31:40;149.60;;;24.95;;
55362;SDS011;41244;49.242;9.060;2023-02-15T07:34:08;193.30;;;29.70;;
55362;SDS011;41244;49.242;9.060;2023-02-15T07:36:34;106.60;;;24.48;;
55362;SDS011;41244;49.242;9.060;2023-02-15T07:38:59;114.22;;;26.33;;
55362;SDS011;41244;49.242;9.060;2023-02-15T07:41:25;147.23;;;24.35;;
55362;SDS011;41244;49.242;9.060;2023-02-15T07:43:51;160.27;;;24.92;;
55362;SDS011;41244;49.242;9.060;2023-02-15T07:46:17;176.93;;;25.05;;
55362;SDS011;41244;49.242;9.060;2023-02-15T07:48:44;175.30;;;25.92;;
55362;SDS011;41244;49.242;9.060;2023-02-15T07:51:10;128.57;;;25.50;;
55362;SDS011;41244;49.242;9.060;2023-02-15T07:53:37;133.55;;;26.20;;
55362;SDS011;41244;49.242;9.060;2023-02-15T07:56:05;107.28;;;24.17;;
55362;SDS011;41244;49.242;9.060;2023-02-15T07:58:34;132.95;;;26.15;;
55362;SDS011;41244;49.242;9.060;2023-02-15T08:01:27;117.78;;;25.45;;
55362;SDS011;41244;49.242;9.060;2023-02-15T08:03:56;99.72;;;33.08;;
55362;SDS011;41244;49.242;9.060;2023-02-15T08:06:23;159.85;;;25.05;;
55362;SDS011;41244;49.242;9.060;2023-02-15T08:08:51;137.35;;;24.17;;
55362;SDS011;41244;49.242;9.060;2023-02-15T08:11:19;107.13;;;25.08;;
55362;SDS011;41244;49.242;9.060;2023-02-15T08:14:10;167.60;;;25.15;;
55362;SDS011;41244;49.242;9.060;2023-02-15T08:16:50;157.68;;;24.60;;
55362;SDS011;41244;49.242;9.060;2023-02-15T08:19:20;142.57;;;24.42;;
55362;SDS011;41244;49.242;9.060;2023-02-15T08:21:52;149.88;;;25.58;;
55362;SDS011;41244;49.242;9.060;2023-02-15T08:24:22;264.42;;;28.13;;
55362;SDS011;41244;49.242;9.060;2023-02-15T08:26:50;158.80;;;26.45;;
55362;SDS011;41244;49.242;9.060;2023-02-15T08:29:17;340.85;;;33.75;;
55362;SDS011;41244;49.242;9.060;2023-02-15T08:31:47;142.70;;;26.52;;
55362;SDS011;41244;49.242;9.060;2023-02-15T08:34:15;140.30;;;25.52;;
55362;SDS011;41244;49.242;9.060;2023-02-15T08:36:43;104.53;;;27.85;;
55362;SDS011;41244;49.242;9.060;2023-02-15T08:39:12;111.85;;;26.80;;
55362;SDS011;41244;49.242;9.060;2023-02-15T08:41:41;168.85;;;25.33;;
55362;SDS011;41244;49.242;9.060;2023-02-15T08:44:09;92.35;;;25.00;;
55362;SDS011;41244;49.242;9.060;2023-02-15T08:46:39;85.97;;;25.25;;
55362;SDS011;41244;49.242;9.060;2023-02-15T08:49:07;82.38;;;24.20;;
55362;SDS011;41244;49.242;9.060;2023-02-15T08:51:35;66.20;;;24.80;;
55362;SDS011;41244;49.242;9.060;2023-02-15T08:54:04;95.22;;;26.48;;
55362;SDS011;41244;49.242;9.060;2023-02-15T08:56:35;98.47;;;24.00;;
55362;SDS011;41244;49.242;9.060;2023-02-15T08:59:04;76.97;;;24.40;;
55362;SDS011;41244;49.242;9.060;2023-02-15T09:01:31;109.13;;;25.50;;
55362;SDS011;41244;49.242;9.060;2023-02-15T09:04:03;75.72;;;25.90;;
55362;SDS011;41244;49.242;9.060;2023-02-15T09:06:33;54.75;;;23.50;;
55362;SDS011;41244;49.242;9.060;2023-02-15T09:08:59;81.88;;;25.17;;
55362;SDS011;41244;49.242;9.060;2023-02-15T09:11:29;73.60;;;23.85;;
55362;SDS011;41244;49.242;9.060;2023-02-15T09:13:59;91.70;;;25.08;;
55362;SDS011;41244;49.242;9.060;2023-02-15T09:16:29;65.50;;;24.60;;
55362;SDS011;41244;49.242;9.060;2023-02-15T09:18:58;80.05;;;26.40;;
55362;SDS011;41244;49.242;9.060;2023-02-15T09:21:26;70.55;;;24.77;;
55362;SDS011;41244;49.242;9.060;2023-02-15T09:23:55;68.72;;;22.65;;
55362;SDS011;41244;49.242;9.060;2023-02-15T09:26:33;62.85;;;24.98;;
55362;SDS011;41244;49.242;9.060;2023-02-15T09:29:02;65.57;;;24.73;;
55362;SDS011;41244;49.242;9.060;2023-02-15T09:31:47;48.00;;;23.70;;
55362;SDS011;41244;49.242;9.060;2023-02-15T09:34:16;77.53;;;27.10;;
55362;SDS011;41244;49.242;9.060;2023-02-15T09:36:44;83.32;;;25.20;;
55362;SDS011;41244;49.242;9.060;2023-02-15T10:04:00;42.05;;;25.60;;
55362;SDS011;41244;49.242;9.060;2023-02-15T10:12:49;56.05;;;23.63;;
55362;SDS011;41244;49.242;9.060;2023-02-15T10:24:01;49.17;;;24.10;;
55362;SDS011;41244;49.242;9.060;2023-02-15T10:26:44;41.67;;;24.75;;
55362;SDS011;41244;49.242;9.060;2023-02-15T10:31:58;36.65;;;23.63;;
55362;SDS011;41244;49.242;9.060;2023-02-15T10:34:59;35.90;;;23.52;;
55362;SDS011;41244;49.242;9.060;2023-02-15T10:41:09;39.65;;;23.38;;
55362;SDS011;41244;49.242;9.060;2023-02-15T10:56:11;44.70;;;25.45;;
55362;SDS011;41244;49.242;9.060;2023-02-15T10:59:23;51.63;;;23.17;;
55362;SDS011;41244;49.242;9.060;2023-02-15T11:08:22;46.03;;;25.35;;
55362;SDS011;41244;49.242;9.060;2023-02-15T11:10:51;52.45;;;25.13;;
55362;SDS011;41244;49.242;9.060;2023-02-15T11:13:20;39.42;;;25.33;;
55362;SDS011;41244;49.242;9.060;2023-02-15T11:21:08;61.25;;;26.60;;
55362;SDS011;41244;49.242;9.060;2023-02-15T11:23:43;48.05;;;28.40;;
55362;SDS011;41244;49.242;9.060;2023-02-15T11:26:15;38.65;;;25.10;;
55362;SDS011;41244;49.242;9.060;2023-02-15T11:33:49;37.67;;;25.45;;
55362;SDS011;41244;49.242;9.060;2023-02-15T11:36:26;37.53;;;25.75;;
55362;SDS011;41244;49.242;9.060;2023-02-15T11:38:59;43.55;;;27.08;;
55362;SDS011;41244;49.242;9.060;2023-02-15T11:41:34;37.53;;;25.73;;
55362;SDS011;41244;49.242;9.060;2023-02-15T11:44:14;38.58;;;24.88;;
55362;SDS011;41244;49.242;9.060;2023-02-15T11:46:45;37.42;;;24.38;;
55362;SDS011;41244;49.242;9.060;2023-02-15T11:51:52;35.75;;;24.60;;
55362;SDS011;41244;49.242;9.060;2023-02-15T11:54:19;38.80;;;24.65;;
55362;SDS011;41244;49.242;9.060;2023-02-15T11:56:52;33.40;;;23.13;;
55362;SDS011;41244;49.242;9.060;2023-02-15T11:59:21;40.28;;;24.42;;
55362;SDS011;41244;49.242;9.060;2023-02-15T12:01:57;37.03;;;24.85;;
55362;SDS011;41244;49.242;9.060;2023-02-15T12:04:24;39.75;;;26.33;;
55362;SDS011;41244;49.242;9.060;2023-02-15T12:07:11;37.20;;;25.98;;
55362;SDS011;41244;49.242;9.060;2023-02-15T12:09:52;35.97;;;25.08;;
55362;SDS011;41244;49.242;9.060;2023-02-15T12:12:39;35.45;;;24.50;;
55362;SDS011;41244;49.242;9.060;2023-02-15T12:15:09;36.90;;;25.85;;
55362;SDS011;41244;49.242;9.060;2023-02-15T12:17:40;40.78;;;26.42;;
55362;SDS011;41244;49.242;9.060;2023-02-15T12:22:53;40.40;;;26.60;;
55362;SDS011;41244;49.242;9.060;2023-02-15T12:25:42;38.80;;;26.35;;
55362;SDS011;41244;49.242;9.060;2023-02-15T12:30:50;43.25;;;28.08;;
55362;SDS011;41244;49.242;9.060;2023-02-15T12:36:09;41.40;;;27.95;;
55362;SDS011;41244;49.242;9.060;2023-02-15T12:38:39;38.33;;;26.33;;
55362;SDS011;41244;49.242;9.060;2023-02-15T12:41:21;40.33;;;27.42;;
55362;SDS011;41244;49.242;9.060;2023-02-15T12:46:35;39.63;;;27.35;;
55362;SDS011;41244;49.242;9.060;2023-02-15T12:51:55;36.20;;;25.27;;
55362;SDS011;41244;49.242;9.060;2023-02-15T12:59:47;37.13;;;25.95;;
55362;SDS011;41244;49.242;9.060;2023-02-15T13:02:19;38.10;;;27.15;;
55362;SDS011;41244;49.242;9.060;2023-02-15T13:04:52;37.75;;;26.65;;
55362;SDS011;41244;49.242;9.060;2023-02-15T13:07:19;40.75;;;26.10;;
55362;SDS011;41244;49.242;9.060;2023-02-15T13:09:45;36.90;;;26.00;;
55362;SDS011;41244;49.242;9.060;2023-02-15T13:12:21;45.22;;;27.40;;
55362;SDS011;41244;49.242;9.060;2023-02-15T13:14:51;40.47;;;28.33;;
55362;SDS011;41244;49.242;9.060;2023-02-15T13:17:21;38.28;;;26.83;;
55362;SDS011;41244;49.242;9.060;2023-02-15T13:19:56;42.25;;;29.00;;
55362;SDS011;41244;49.242;9.060;2023-02-15T13:22:38;38.90;;;26.90;;
55362;SDS011;41244;49.242;9.060;2023-02-15T13:25:16;40.97;;;27.58;;
55362;SDS011;41244;49.242;9.060;2023-02-15T13:27:55;39.80;;;28.58;;
55362;SDS011;41244;49.242;9.060;2023-02-15T13:33:14;38.60;;;27.25;;
55362;SDS011;41244;49.242;9.060;2023-02-15T13:35:59;74.97;;;39.65;;
55362;SDS011;41244;49.242;9.060;2023-02-15T13:44:03;35.58;;;26.13;;
55362;SDS011;41244;49.242;9.060;2023-02-15T13:49:17;36.33;;;25.60;;
55362;SDS011;41244;49.242;9.060;2023-02-15T13:52:05;33.92;;;24.63;;
55362;SDS011;41244;49.242;9.060;2023-02-15T14:03:55;35.33;;;25.13;;
55362;SDS011;41244;49.242;9.060;2023-02-15T14:15:35;32.63;;;24.55;;
55362;SDS011;41244;49.242;9.060;2023-02-15T14:20:57;31.17;;;24.30;;
55362;SDS011;41244;49.242;9.060;2023-02-15T14:23:54;31.00;;;24.02;;
55362;SDS011;41244;49.242;9.060;2023-02-15T14:27:43;32.20;;;23.75;;
55362;SDS011;41244;49.242;9.060;2023-02-15T14:30:20;31.77;;;23.95;;
55362;SDS011;41244;49.242;9.060;2023-02-15T14:32:52;30.08;;;24.02;;
55362;SDS011;41244;49.242;9.060;2023-02-15T14:35:32;32.40;;;23.40;;
55362;SDS011;41244;49.242;9.060;2023-02-15T14:46:50;30.83;;;22.00;;
55362;SDS011;41244;49.242;9.060;2023-02-15T14:49:38;30.65;;;21.75;;
55362;SDS011;41244;49.242;9.060;2023-02-15T14:52:08;29.20;;;22.98;;
55362;SDS011;41244;49.242;9.060;2023-02-15T14:59:37;35.15;;;22.98;;
55362;SDS011;41244;49.242;9.060;2023-02-15T15:07:59;28.35;;;22.73;;
55362;SDS011;41244;49.242;9.060;2023-02-15T15:17:05;32.95;;;22.88;;
55362;SDS011;41244;49.242;9.060;2023-02-15T15:19:07;30.58;;;22.98;;
55362;SDS011;41244;49.242;9.060;2023-02-15T15:21:54;31.48;;;24.15;;
55362;SDS011;41244;49.242;9.060;2023-02-15T15:32:38;31.40;;;23.85;;
55362;SDS011;41244;49.242;9.060;2023-02-15T15:41:55;33.03;;;24.15;;
55362;SDS011;41244;49.242;9.060;2023-02-15T15:50:23;36.30;;;27.15;;
55362;SDS011;41244;49.242;9.060;2023-02-15T15:52:50;32.17;;;24.95;;
55362;SDS011;41244;49.242;9.060;2023-02-15T15:55:20;63.80;;;41.05;;
55362;SDS011;41244;49.242;9.060;2023-02-15T15:57:52;55.53;;;38.08;;
55362;SDS011;41244;49.242;9.060;2023-02-15T16:02:58;46.22;;;33.38;;
55362;SDS011;41244;49.242;9.060;2023-02-15T16:05:24;37.15;;;27.65;;
55362;SDS011;41244;49.242;9.060;2023-02-15T16:07:50;42.45;;;26.50;;
55362;SDS011;41244;49.242;9.060;2023-02-15T16:10:23;36.65;;;27.50;;
55362;SDS011;41244;49.242;9.060;2023-02-15T16:12:53;34.67;;;24.60;;
55362;SDS011;41244;49.242;9.060;2023-02-15T16:15:20;35.78;;;25.55;;
55362;SDS011;41244;49.242;9.060;2023-02-15T16:17:53;32.75;;;23.73;;
55362;SDS011;41244;49.242;9.060;2023-02-15T16:20:29;48.63;;;27.02;;
55362;SDS011;41244;49.242;9.060;2023-02-15T16:23:10;37.83;;;24.83;;
55362;SDS011;41244;49.242;9.060;2023-02-15T16:28:52;39.22;;;24.27;;
55362;SDS011;41244;49.242;9.060;2023-02-15T16:31:19;37.10;;;24.38;;
55362;SDS011;41244;49.242;9.060;2023-02-15T16:33:51;37.17;;;23.52;;
55362;SDS011;41244;49.242;9.060;2023-02-15T16:36:28;33.15;;;23.75;;
55362;SDS011;41244;49.242;9.060;2023-02-15T16:41:28;35.95;;;24.33;;
55362;SDS011;41244;49.242;9.060;2023-02-15T16:43:56;31.65;;;24.27;;
55362;SDS011;41244;49.242;9.060;2023-02-15T16:46:25;37.50;;;24.60;;
55362;SDS011;41244;49.242;9.060;2023-02-15T16:49:07;33.35;;;23.88;;
55362;SDS011;41244;49.242;9.060;2023-02-15T16:51:57;37.65;;;24.33;;
55362;SDS011;41244;49.242;9.060;2023-02-15T16:54:30;34.50;;;24.08;;
55362;SDS011;41244;49.242;9.060;2023-02-15T16:56:56;36.17;;;24.40;;
55362;SDS011;41244;49.242;9.060;2023-02-15T17:04:41;31.73;;;23.30;;
55362;SDS011;41244;49.242;9.060;2023-02-15T17:09:49;32.08;;;22.92;;
55362;SDS011;41244;49.242;9.060;2023-02-15T17:15:24;36.20;;;24.67;;
55362;SDS011;41244;49.242;9.060;2023-02-15T17:17:51;33.53;;;23.52;;
55362;SDS011;41244;49.242;9.060;2023-02-15T17:20:17;35.88;;;25.70;;
55362;SDS011;41244;49.242;9.060;2023-02-15T17:22:44;35.75;;;24.92;;
55362;SDS011;41244;49.242;9.060;2023-02-15T17:25:16;31.98;;;23.52;;
55362;SDS011;41244;49.242;9.060;2023-02-15T17:27:54;33.05;;;24.08;;
55362;SDS011;41244;49.242;9.060;2023-02-15T17:30:23;43.33;;;23.17;;
55362;SDS011;41244;49.242;9.060;2023-02-15T17:32:58;39.97;;;24.05;;
55362;SDS011;41244;49.242;9.060;2023-02-15T17:35:32;30.33;;;21.95;;
55362;SDS011;41244;49.242;9.060;2023-02-15T17:38:02;30.75;;;23.30;;
55362;SDS011;41244;49.242;9.060;2023-02-15T17:40:31;31.38;;;22.75;;
55362;SDS011;41244;49.242;9.060;2023-02-15T17:42:59;32.70;;;22.33;;
55362;SDS011;41244;49.242;9.060;2023-02-15T17:45:26;30.40;;;23.08;;
55362;SDS011;41244;49.242;9.060;2023-02-15T17:47:59;30.98;;;23.73;;
55362;SDS011;41244;49.242;9.060;2023-02-15T17:50:29;32.28;;;22.95;;
55362;SDS011;41244;49.242;9.060;2023-02-15T17:52:55;34.40;;;24.10;;
55362;SDS011;41244;49.242;9.060;2023-02-15T17:55:23;37.40;;;22.98;;
55362;SDS011;41244;49.242;9.060;2023-02-15T17:58:07;34.63;;;23.65;;
55362;SDS011;41244;49.242;9.060;2023-02-15T18:00:42;35.47;;;24.52;;
55362;SDS011;41244;49.242;9.060;2023-02-15T18:03:41;32.03;;;23.17;;
55362;SDS011;41244;49.242;9.060;2023-02-15T18:06:33;36.90;;;23.88;;
55362;SDS011;41244;49.242;9.060;2023-02-15T18:09:20;31.67;;;22.55;;
55362;SDS011;41244;49.242;9.060;2023-02-15T18:12:27;35.83;;;23.27;;
55362;SDS011;41244;49.242;9.060;2023-02-15T18:14:56;29.38;;;21.65;;
55362;SDS011;41244;49.242;9.060;2023-02-15T18:20:00;32.85;;;23.42;;
55362;SDS011;41244;49.242;9.060;2023-02-15T18:22:29;31.40;;;23.02;;
55362;SDS011;41244;49.242;9.060;2023-02-15T18:24:55;32.10;;;23.10;;
55362;SDS011;41244;49.242;9.060;2023-02-15T18:27:21;32.28;;;23.80;;
55362;SDS011;41244;49.242;9.060;2023-02-15T18:29:47;32.45;;;23.10;;
55362;SDS011;41244;49.242;9.060;2023-02-15T18:32:24;32.47;;;23.15;;
55362;SDS011;41244;49.242;9.060;2023-02-15T18:37:23;32.05;;;22.20;;